sensor_id;sensor_type;location;lat;lon;timestamp;temperature;humidity
72952;HTU21D;61102;51.956;5.878;2023-04-04T00:00:34;7.52;42.94
72952;HTU21D;61102;51.956;5.878;2023-04-04T00:03:00;7.49;42.93
72952;HTU21D;61102;51.956;5.878;2023-04-04T00:05:26;7.46;43.00
72952;HTU21D;61102;51.956;5.878;2023-04-04T00:07:53;7.45;42.97
72952;HTU21D;61102;51.956;5.878;2023-04-04T00:10:19;7.43;42.94
72952;HTU21D;61102;51.956;5.878;2023-04-04T00:12:45;7.43;42.90
72952;HTU21D;61102;51.956;5.878;2023-04-04T00:15:11;7.43;42.83
72952;HTU21D;61102;51.956;5.878;2023-04-04T00:17:38;7.43;42.79
72952;HTU21D;61102;51.956;5.878;2023-04-04T00:20:04;7.43;42.74
72952;HTU21D;61102;51.956;5.878;2023-04-04T00:22:30;7.42;42.77
72952;HTU21D;61102;51.956;5.878;2023-04-04T00:24:56;7.42;42.77
72952;HTU21D;61102;51.956;5.878;2023-04-04T00:27:22;7.40;42.77
72952;HTU21D;61102;51.956;5.878;2023-04-04T00:29:48;7.38;42.84
72952;HTU21D;61102;51.956;5.878;2023-04-04T00:32:14;7.38;42.87
72952;HTU21D;61102;51.956;5.878;2023-04-04T00:34:41;7.33;42.93
72952;HTU21D;61102;51.956;5.878;2023-04-04T00:37:07;7.32;42.90
72952;HTU21D;61102;51.956;5.878;2023-04-04T00:39:36;7.29;42.96
72952;HTU21D;61102;51.956;5.878;2023-04-04T00:42:03;7.27;43.02
72952;HTU21D;61102;51.956;5.878;2023-04-04T00:44:30;7.24;43.10
72952;HTU21D;61102;51.956;5.878;2023-04-04T00:46:56;7.24;43.08
72952;HTU21D;61102;51.956;5.878;2023-04-04T00:49:23;7.19;43.16
72952;HTU21D;61102;51.956;5.878;2023-04-04T00:51:49;7.16;43.22
72952;HTU21D;61102;51.956;5.878;2023-04-04T00:54:15;7.14;43.23
72952;HTU21D;61102;51.956;5.878;2023-04-04T00:56:42;7.12;43.29
72952;HTU21D;61102;51.956;5.878;2023-04-04T00:59:08;7.11;43.38
72952;HTU21D;61102;51.956;5.878;2023-04-04T01:01:34;7.08;43.52
72952;HTU21D;61102;51.956;5.878;2023-04-04T01:04:01;7.04;43.53
72952;HTU21D;61102;51.956;5.878;2023-04-04T01:06:29;7.02;43.63
72952;HTU21D;61102;51.956;5.878;2023-04-04T01:08:57;7.00;43.70
72952;HTU21D;61102;51.956;5.878;2023-04-04T01:11:25;6.97;43.78
72952;HTU21D;61102;51.956;5.878;2023-04-04T01:13:51;6.95;43.82
72952;HTU21D;61102;51.956;5.878;2023-04-04T01:16:17;6.93;43.80
72952;HTU21D;61102;51.956;5.878;2023-04-04T01:18:44;6.91;43.85
72952;HTU21D;61102;51.956;5.878;2023-04-04T01:21:13;6.89;43.98
72952;HTU21D;61102;51.956;5.878;2023-04-04T01:26:20;6.83;44.01
72952;HTU21D;61102;51.956;5.878;2023-04-04T01:28:46;7.13;43.37
72952;HTU21D;61102;51.956;5.878;2023-04-04T01:31:16;6.87;43.74
72952;HTU21D;61102;51.956;5.878;2023-04-04T01:33:54;6.80;44.09
72952;HTU21D;61102;51.956;5.878;2023-04-04T01:36:31;6.76;44.22
72952;HTU21D;61102;51.956;5.878;2023-04-04T01:39:12;6.73;44.33
72952;HTU21D;61102;51.956;5.878;2023-04-04T01:41:40;6.70;44.17
72952;HTU21D;61102;51.956;5.878;2023-04-04T01:44:08;6.65;44.49
72952;HTU21D;61102;51.956;5.878;2023-04-04T01:46:35;6.64;44.67
72952;HTU21D;61102;51.956;5.878;2023-04-04T01:49:02;6.60;44.70
72952;HTU21D;61102;51.956;5.878;2023-04-04T01:51:32;6.59;44.71
72952;HTU21D;61102;51.956;5.878;2023-04-04T01:53:58;6.58;44.77
72952;HTU21D;61102;51.956;5.878;2023-04-04T01:56:24;6.55;44.96
72952;HTU21D;61102;51.956;5.878;2023-04-04T01:58:51;6.53;45.06
72952;HTU21D;61102;51.956;5.878;2023-04-04T02:01:18;6.51;45.11
72952;HTU21D;61102;51.956;5.878;2023-04-04T02:03:44;6.46;45.15
72952;HTU21D;61102;51.956;5.878;2023-04-04T02:06:12;6.46;45.12
72952;HTU21D;61102;51.956;5.878;2023-04-04T02:08:38;6.44;45.25
72952;HTU21D;61102;51.956;5.878;2023-04-04T02:11:05;6.42;45.22
72952;HTU21D;61102;51.956;5.878;2023-04-04T02:13:31;6.40;45.21
72952;HTU21D;61102;51.956;5.878;2023-04-04T02:15:58;6.38;45.25
72952;HTU21D;61102;51.956;5.878;2023-04-04T02:18:25;6.34;45.43
72952;HTU21D;61102;51.956;5.878;2023-04-04T02:20:55;6.30;45.57
72952;HTU21D;61102;51.956;5.878;2023-04-04T02:23:21;6.30;45.48
72952;HTU21D;61102;51.956;5.878;2023-04-04T02:25:49;6.27;45.67
72952;HTU21D;61102;51.956;5.878;2023-04-04T02:28:15;6.28;45.59
72952;HTU21D;61102;51.956;5.878;2023-04-04T02:30:42;6.25;45.66
72952;HTU21D;61102;51.956;5.878;2023-04-04T02:33:08;6.23;45.74
72952;HTU21D;61102;51.956;5.878;2023-04-04T02:35:34;6.21;45.83
72952;HTU21D;61102;51.956;5.878;2023-04-04T02:38:00;6.19;45.89
72952;HTU21D;61102;51.956;5.878;2023-04-04T02:40:36;6.20;45.92
72952;HTU21D;61102;51.956;5.878;2023-04-04T02:43:04;6.15;45.93
72952;HTU21D;61102;51.956;5.878;2023-04-04T02:45:31;6.13;45.99
72952;HTU21D;61102;51.956;5.878;2023-04-04T02:48:09;6.12;45.99
72952;HTU21D;61102;51.956;5.878;2023-04-04T02:50:45;6.09;46.03
72952;HTU21D;61102;51.956;5.878;2023-04-04T02:53:13;6.07;46.01
72952;HTU21D;61102;51.956;5.878;2023-04-04T02:55:39;6.05;45.99
72952;HTU21D;61102;51.956;5.878;2023-04-04T02:58:05;6.04;45.98
72952;HTU21D;61102;51.956;5.878;2023-04-04T03:00:31;6.00;46.02
72952;HTU21D;61102;51.956;5.878;2023-04-04T03:02:57;5.97;46.07
72952;HTU21D;61102;51.956;5.878;2023-04-04T03:05:30;5.96;46.06
72952;HTU21D;61102;51.956;5.878;2023-04-04T03:07:58;5.95;46.08
72952;HTU21D;61102;51.956;5.878;2023-04-04T03:10:28;5.91;46.15
72952;HTU21D;61102;51.956;5.878;2023-04-04T03:12:58;5.90;46.15
72952;HTU21D;61102;51.956;5.878;2023-04-04T03:15:26;5.86;46.15
72952;HTU21D;61102;51.956;5.878;2023-04-04T03:17:53;5.86;46.17
72952;HTU21D;61102;51.956;5.878;2023-04-04T03:20:23;5.84;46.19
72952;HTU21D;61102;51.956;5.878;2023-04-04T03:22:50;5.82;46.25
72952;HTU21D;61102;51.956;5.878;2023-04-04T03:25:16;5.79;46.28
72952;HTU21D;61102;51.956;5.878;2023-04-04T03:27:43;5.76;46.32
72952;HTU21D;61102;51.956;5.878;2023-04-04T03:30:09;5.75;46.44
72952;HTU21D;61102;51.956;5.878;2023-04-04T03:32:36;5.72;46.43
72952;HTU21D;61102;51.956;5.878;2023-04-04T03:35:07;5.70;46.61
72952;HTU21D;61102;51.956;5.878;2023-04-04T03:37:33;5.71;46.50
72952;HTU21D;61102;51.956;5.878;2023-04-04T03:39:59;5.68;46.52
72952;HTU21D;61102;51.956;5.878;2023-04-04T03:42:26;5.69;46.52
72952;HTU21D;61102;51.956;5.878;2023-04-04T03:44:53;5.68;46.50
72952;HTU21D;61102;51.956;5.878;2023-04-04T03:47:27;5.69;46.51
72952;HTU21D;61102;51.956;5.878;2023-04-04T03:49:55;5.68;46.49
72952;HTU21D;61102;51.956;5.878;2023-04-04T03:52:22;5.68;46.51
72952;HTU21D;61102;51.956;5.878;2023-04-04T03:54:48;5.69;46.55
72952;HTU21D;61102;51.956;5.878;2023-04-04T03:57:14;5.67;46.80
72952;HTU21D;61102;51.956;5.878;2023-04-04T03:59:42;5.65;46.85
72952;HTU21D;61102;51.956;5.878;2023-04-04T04:02:08;5.66;46.77
72952;HTU21D;61102;51.956;5.878;2023-04-04T04:04:34;5.65;46.82
72952;HTU21D;61102;51.956;5.878;2023-04-04T04:07:00;5.62;46.85
72952;HTU21D;61102;51.956;5.878;2023-04-04T04:09:27;5.60;46.86
72952;HTU21D;61102;51.956;5.878;2023-04-04T04:11:53;5.57;46.92
72952;HTU21D;61102;51.956;5.878;2023-04-04T04:14:19;5.53;46.96
72952;HTU21D;61102;51.956;5.878;2023-04-04T04:16:45;5.51;46.98
72952;HTU21D;61102;51.956;5.878;2023-04-04T04:19:16;5.49;46.96
72952;HTU21D;61102;51.956;5.878;2023-04-04T04:21:42;5.43;46.99
72952;HTU21D;61102;51.956;5.878;2023-04-04T04:24:09;5.38;47.07
72952;HTU21D;61102;51.956;5.878;2023-04-04T04:26:35;5.30;47.16
72952;HTU21D;61102;51.956;5.878;2023-04-04T04:29:02;5.24;47.25
72952;HTU21D;61102;51.956;5.878;2023-04-04T04:31:31;5.19;47.29
72952;HTU21D;61102;51.956;5.878;2023-04-04T04:33:58;5.16;47.34
72952;HTU21D;61102;51.956;5.878;2023-04-04T04:36:28;5.13;47.37
72952;HTU21D;61102;51.956;5.878;2023-04-04T04:39:23;5.13;47.28
72952;HTU21D;61102;51.956;5.878;2023-04-04T04:42:18;5.15;47.28
72952;HTU21D;61102;51.956;5.878;2023-04-04T04:44:50;5.12;47.43
72952;HTU21D;61102;51.956;5.878;2023-04-04T04:47:18;5.11;47.48
72952;HTU21D;61102;51.956;5.878;2023-04-04T04:49:44;5.11;47.38
72952;HTU21D;61102;51.956;5.878;2023-04-04T04:52:15;5.10;47.42
72952;HTU21D;61102;51.956;5.878;2023-04-04T04:54:42;5.05;47.46
72952;HTU21D;61102;51.956;5.878;2023-04-04T04:57:08;5.01;47.54
72952;HTU21D;61102;51.956;5.878;2023-04-04T04:59:39;4.98;47.59
72952;HTU21D;61102;51.956;5.878;2023-04-04T05:02:08;4.94;47.61
72952;HTU21D;61102;51.956;5.878;2023-04-04T05:04:40;4.92;47.62
72952;HTU21D;61102;51.956;5.878;2023-04-04T05:07:11;4.86;47.75
72952;HTU21D;61102;51.956;5.878;2023-04-04T05:09:38;4.83;47.77
72952;HTU21D;61102;51.956;5.878;2023-04-04T05:12:05;4.82;47.79
72952;HTU21D;61102;51.956;5.878;2023-04-04T05:14:41;4.81;47.75
72952;HTU21D;61102;51.956;5.878;2023-04-04T05:17:07;4.78;47.79
72952;HTU21D;61102;51.956;5.878;2023-04-04T05:19:34;4.78;47.83
72952;HTU21D;61102;51.956;5.878;2023-04-04T05:22:01;4.77;47.91
72952;HTU21D;61102;51.956;5.878;2023-04-04T05:24:49;4.79;47.84
72952;HTU21D;61102;51.956;5.878;2023-04-04T05:27:20;4.81;47.85
72952;HTU21D;61102;51.956;5.878;2023-04-04T05:29:53;4.88;47.82
72952;HTU21D;61102;51.956;5.878;2023-04-04T05:32:20;4.92;47.74
72952;HTU21D;61102;51.956;5.878;2023-04-04T05:34:54;5.01;47.61
72952;HTU21D;61102;51.956;5.878;2023-04-04T05:37:21;5.05;47.59
72952;HTU21D;61102;51.956;5.878;2023-04-04T05:39:48;5.09;47.61
72952;HTU21D;61102;51.956;5.878;2023-04-04T05:42:15;5.18;47.60
72952;HTU21D;61102;51.956;5.878;2023-04-04T05:44:47;5.36;47.40
72952;HTU21D;61102;51.956;5.878;2023-04-04T05:47:13;5.52;47.24
72952;HTU21D;61102;51.956;5.878;2023-04-04T05:49:43;5.65;47.06
72952;HTU21D;61102;51.956;5.878;2023-04-04T05:52:09;5.71;47.07
72952;HTU21D;61102;51.956;5.878;2023-04-04T05:54:36;5.82;47.04
72952;HTU21D;61102;51.956;5.878;2023-04-04T05:57:22;5.93;46.95
72952;HTU21D;61102;51.956;5.878;2023-04-04T05:59:52;6.05;46.93
72952;HTU21D;61102;51.956;5.878;2023-04-04T06:02:35;6.19;47.15
72952;HTU21D;61102;51.956;5.878;2023-04-04T06:05:03;6.24;46.94
72952;HTU21D;61102;51.956;5.878;2023-04-04T06:07:32;6.29;46.96
72952;HTU21D;61102;51.956;5.878;2023-04-04T06:10:03;6.36;47.18
72952;HTU21D;61102;51.956;5.878;2023-04-04T06:12:30;6.46;47.03
72952;HTU21D;61102;51.956;5.878;2023-04-04T06:14:57;6.58;46.98
72952;HTU21D;61102;51.956;5.878;2023-04-04T06:17:23;6.74;46.90
72952;HTU21D;61102;51.956;5.878;2023-04-04T06:19:49;6.88;46.70
72952;HTU21D;61102;51.956;5.878;2023-04-04T06:22:16;7.04;46.60
72952;HTU21D;61102;51.956;5.878;2023-04-04T06:24:46;7.17;46.45
72952;HTU21D;61102;51.956;5.878;2023-04-04T06:27:12;7.28;46.39
72952;HTU21D;61102;51.956;5.878;2023-04-04T06:29:39;7.40;46.36
72952;HTU21D;61102;51.956;5.878;2023-04-04T06:32:07;7.90;45.51
72952;HTU21D;61102;51.956;5.878;2023-04-04T06:34:37;7.69;45.79
72952;HTU21D;61102;51.956;5.878;2023-04-04T06:37:03;7.73;45.71
72952;HTU21D;61102;51.956;5.878;2023-04-04T06:39:36;7.83;45.52
72952;HTU21D;61102;51.956;5.878;2023-04-04T06:42:07;7.93;45.20
72952;HTU21D;61102;51.956;5.878;2023-04-04T06:44:35;8.02;45.03
72952;HTU21D;61102;51.956;5.878;2023-04-04T06:47:01;8.12;44.97
72952;HTU21D;61102;51.956;5.878;2023-04-04T06:49:27;8.27;44.88
72952;HTU21D;61102;51.956;5.878;2023-04-04T06:51:54;8.42;44.62
72952;HTU21D;61102;51.956;5.878;2023-04-04T06:54:20;8.56;44.11
72952;HTU21D;61102;51.956;5.878;2023-04-04T06:56:46;8.71;43.76
72952;HTU21D;61102;51.956;5.878;2023-04-04T06:59:13;8.85;43.60
72952;HTU21D;61102;51.956;5.878;2023-04-04T07:01:39;9.00;43.44
72952;HTU21D;61102;51.956;5.878;2023-04-04T07:04:06;9.17;43.05
72952;HTU21D;61102;51.956;5.878;2023-04-04T07:06:32;9.29;43.06
72952;HTU21D;61102;51.956;5.878;2023-04-04T07:08:58;9.41;43.03
72952;HTU21D;61102;51.956;5.878;2023-04-04T07:11:40;9.62;42.84
72952;HTU21D;61102;51.956;5.878;2023-04-04T07:14:06;9.68;42.48
72952;HTU21D;61102;51.956;5.878;2023-04-04T07:16:32;9.78;42.38
72952;HTU21D;61102;51.956;5.878;2023-04-04T07:18:58;9.90;42.07
72952;HTU21D;61102;51.956;5.878;2023-04-04T07:21:24;9.98;41.84
72952;HTU21D;61102;51.956;5.878;2023-04-04T07:23:50;10.11;41.93
72952;HTU21D;61102;51.956;5.878;2023-04-04T07:26:16;10.26;41.82
72952;HTU21D;61102;51.956;5.878;2023-04-04T07:28:42;10.42;41.50
72952;HTU21D;61102;51.956;5.878;2023-04-04T07:31:08;10.55;41.33
72952;HTU21D;61102;51.956;5.878;2023-04-04T07:33:34;10.69;41.08
72952;HTU21D;61102;51.956;5.878;2023-04-04T07:36:00;10.83;41.05
72952;HTU21D;61102;51.956;5.878;2023-04-04T07:38:27;10.97;40.81
72952;HTU21D;61102;51.956;5.878;2023-04-04T07:40:54;11.11;40.71
72952;HTU21D;61102;51.956;5.878;2023-04-04T07:43:20;11.28;40.55
72952;HTU21D;61102;51.956;5.878;2023-04-04T07:45:48;11.41;40.38
72952;HTU21D;61102;51.956;5.878;2023-04-04T07:48:14;11.55;40.04
72952;HTU21D;61102;51.956;5.878;2023-04-04T07:50:40;11.66;39.85
72952;HTU21D;61102;51.956;5.878;2023-04-04T07:53:06;11.74;39.76
72952;HTU21D;61102;51.956;5.878;2023-04-04T07:55:32;11.77;39.51
72952;HTU21D;61102;51.956;5.878;2023-04-04T07:57:58;11.85;38.99
72952;HTU21D;61102;51.956;5.878;2023-04-04T08:00:25;11.96;38.81
72952;HTU21D;61102;51.956;5.878;2023-04-04T08:02:52;12.06;38.43
72952;HTU21D;61102;51.956;5.878;2023-04-04T08:05:19;12.19;38.21
72952;HTU21D;61102;51.956;5.878;2023-04-04T08:07:45;12.34;38.13
72952;HTU21D;61102;51.956;5.878;2023-04-04T08:10:13;12.49;38.12
72952;HTU21D;61102;51.956;5.878;2023-04-04T08:12:42;12.63;37.80
72952;HTU21D;61102;51.956;5.878;2023-04-04T08:15:10;12.77;37.73
72952;HTU21D;61102;51.956;5.878;2023-04-04T08:17:36;12.89;37.37
72952;HTU21D;61102;51.956;5.878;2023-04-04T08:20:03;12.99;37.18
72952;HTU21D;61102;51.956;5.878;2023-04-04T08:22:29;13.05;36.89
72952;HTU21D;61102;51.956;5.878;2023-04-04T08:24:56;13.14;36.74
72952;HTU21D;61102;51.956;5.878;2023-04-04T08:27:22;13.22;36.47
72952;HTU21D;61102;51.956;5.878;2023-04-04T08:29:48;13.29;35.44
72952;HTU21D;61102;51.956;5.878;2023-04-04T08:32:14;13.36;35.53
72952;HTU21D;61102;51.956;5.878;2023-04-04T08:34:42;13.43;35.21
72952;HTU21D;61102;51.956;5.878;2023-04-04T08:37:08;13.50;35.08
72952;HTU21D;61102;51.956;5.878;2023-04-04T08:39:35;13.55;34.29
72952;HTU21D;61102;51.956;5.878;2023-04-04T08:42:03;13.56;33.99
72952;HTU21D;61102;51.956;5.878;2023-04-04T08:44:31;13.63;33.99
72952;HTU21D;61102;51.956;5.878;2023-04-04T08:47:03;13.70;34.17
72952;HTU21D;61102;51.956;5.878;2023-04-04T08:49:44;13.85;33.72
72952;HTU21D;61102;51.956;5.878;2023-04-04T08:52:11;13.92;33.89
72952;HTU21D;61102;51.956;5.878;2023-04-04T08:54:40;14.01;33.93
72952;HTU21D;61102;51.956;5.878;2023-04-04T08:57:08;14.03;31.57
72952;HTU21D;61102;51.956;5.878;2023-04-04T08:59:34;14.00;31.94
72952;HTU21D;61102;51.956;5.878;2023-04-04T09:02:14;14.04;32.42
72952;HTU21D;61102;51.956;5.878;2023-04-04T09:04:42;14.09;32.41
72952;HTU21D;61102;51.956;5.878;2023-04-04T09:07:10;14.21;32.40
72952;HTU21D;61102;51.956;5.878;2023-04-04T09:09:38;14.27;31.97
72952;HTU21D;61102;51.956;5.878;2023-04-04T09:12:05;14.32;31.44
72952;HTU21D;61102;51.956;5.878;2023-04-04T09:14:32;14.40;31.38
72952;HTU21D;61102;51.956;5.878;2023-04-04T09:17:00;14.42;30.84
72952;HTU21D;61102;51.956;5.878;2023-04-04T09:19:26;14.30;28.67
72952;HTU21D;61102;51.956;5.878;2023-04-04T09:21:52;14.19;29.80
72952;HTU21D;61102;51.956;5.878;2023-04-04T09:24:18;14.23;29.93
72952;HTU21D;61102;51.956;5.878;2023-04-04T09:26:48;14.27;30.03
72952;HTU21D;61102;51.956;5.878;2023-04-04T09:29:19;14.32;29.58
72952;HTU21D;61102;51.956;5.878;2023-04-04T09:31:46;14.37;29.35
72952;HTU21D;61102;51.956;5.878;2023-04-04T09:34:18;14.40;29.05
72952;HTU21D;61102;51.956;5.878;2023-04-04T09:36:45;14.49;29.04
72952;HTU21D;61102;51.956;5.878;2023-04-04T09:39:12;14.56;29.05
72952;HTU21D;61102;51.956;5.878;2023-04-04T09:41:42;14.50;28.58
72952;HTU21D;61102;51.956;5.878;2023-04-04T09:44:09;14.58;28.90
72952;HTU21D;61102;51.956;5.878;2023-04-04T09:46:37;15.11;27.64
72952;HTU21D;61102;51.956;5.878;2023-04-04T09:49:03;14.69;28.28
72952;HTU21D;61102;51.956;5.878;2023-04-04T09:51:37;14.60;27.81
72952;HTU21D;61102;51.956;5.878;2023-04-04T09:54:03;14.95;27.00
72952;HTU21D;61102;51.956;5.878;2023-04-04T09:56:35;14.51;28.23
72952;HTU21D;61102;51.956;5.878;2023-04-04T09:59:05;14.38;28.35
72952;HTU21D;61102;51.956;5.878;2023-04-04T10:01:33;14.26;28.39
72952;HTU21D;61102;51.956;5.878;2023-04-04T10:03:59;14.24;28.30
72952;HTU21D;61102;51.956;5.878;2023-04-04T10:06:25;14.24;28.33
72952;HTU21D;61102;51.956;5.878;2023-04-04T10:08:51;14.30;28.23
72952;HTU21D;61102;51.956;5.878;2023-04-04T10:11:28;14.37;28.57
72952;HTU21D;61102;51.956;5.878;2023-04-04T10:13:56;14.41;28.43
72952;HTU21D;61102;51.956;5.878;2023-04-04T10:16:23;14.41;28.68
72952;HTU21D;61102;51.956;5.878;2023-04-04T10:18:49;14.50;28.59
72952;HTU21D;61102;51.956;5.878;2023-04-04T10:21:16;14.60;28.31
72952;HTU21D;61102;51.956;5.878;2023-04-04T10:23:46;14.53;27.32
72952;HTU21D;61102;51.956;5.878;2023-04-04T10:26:14;14.44;27.68
72952;HTU21D;61102;51.956;5.878;2023-04-04T10:28:40;14.38;28.07
72952;HTU21D;61102;51.956;5.878;2023-04-04T10:31:24;14.52;28.34
72952;HTU21D;61102;51.956;5.878;2023-04-04T10:36:48;14.65;28.45
72952;HTU21D;61102;51.956;5.878;2023-04-04T10:39:22;14.72;28.19
72952;HTU21D;61102;51.956;5.878;2023-04-04T10:41:50;14.78;28.18
72952;HTU21D;61102;51.956;5.878;2023-04-04T10:44:37;14.88;28.28
72952;HTU21D;61102;51.956;5.878;2023-04-04T10:49:43;14.95;28.52
72952;HTU21D;61102;51.956;5.878;2023-04-04T10:52:21;15.04;28.10
72952;HTU21D;61102;51.956;5.878;2023-04-04T10:54:53;15.02;27.66
72952;HTU21D;61102;51.956;5.878;2023-04-04T10:57:20;14.98;28.07
72952;HTU21D;61102;51.956;5.878;2023-04-04T11:00:04;15.06;28.50
72952;HTU21D;61102;51.956;5.878;2023-04-04T11:07:49;15.33;28.13
72952;HTU21D;61102;51.956;5.878;2023-04-04T11:10:25;15.37;28.34
72952;HTU21D;61102;51.956;5.878;2023-04-04T11:12:53;15.31;28.45
72952;HTU21D;61102;51.956;5.878;2023-04-04T11:15:21;15.30;28.45
72952;HTU21D;61102;51.956;5.878;2023-04-04T11:20:21;15.36;28.56
72952;HTU21D;61102;51.956;5.878;2023-04-04T11:22:49;15.25;28.58
72952;HTU21D;61102;51.956;5.878;2023-04-04T11:25:29;15.21;29.00
72952;HTU21D;61102;51.956;5.878;2023-04-04T11:27:56;15.17;28.84
72952;HTU21D;61102;51.956;5.878;2023-04-04T11:30:26;15.19;29.09
72952;HTU21D;61102;51.956;5.878;2023-04-04T11:32:58;15.27;28.74
72952;HTU21D;61102;51.956;5.878;2023-04-04T11:35:26;15.26;28.59
72952;HTU21D;61102;51.956;5.878;2023-04-04T11:40:19;15.23;28.55
72952;HTU21D;61102;51.956;5.878;2023-04-04T11:42:52;15.33;28.73
72952;HTU21D;61102;51.956;5.878;2023-04-04T11:45:24;15.47;28.77
72952;HTU21D;61102;51.956;5.878;2023-04-04T11:47:51;15.59;28.19
72952;HTU21D;61102;51.956;5.878;2023-04-04T11:50:18;15.66;28.25
72952;HTU21D;61102;51.956;5.878;2023-04-04T11:52:45;16.12;26.92
72952;HTU21D;61102;51.956;5.878;2023-04-04T11:55:18;15.74;27.60
72952;HTU21D;61102;51.956;5.878;2023-04-04T11:57:46;15.74;27.65
72952;HTU21D;61102;51.956;5.878;2023-04-04T12:00:36;15.86;26.99
72952;HTU21D;61102;51.956;5.878;2023-04-04T12:03:05;15.77;27.32
72952;HTU21D;61102;51.956;5.878;2023-04-04T12:05:32;15.89;27.39
72952;HTU21D;61102;51.956;5.878;2023-04-04T12:07:59;16.05;27.29
72952;HTU21D;61102;51.956;5.878;2023-04-04T12:10:29;16.21;27.36
72952;HTU21D;61102;51.956;5.878;2023-04-04T12:12:57;16.43;27.09
72952;HTU21D;61102;51.956;5.878;2023-04-04T12:15:26;16.63;26.77
72952;HTU21D;61102;51.956;5.878;2023-04-04T12:17:52;16.85;26.32
72952;HTU21D;61102;51.956;5.878;2023-04-04T12:20:21;17.05;25.88
72952;HTU21D;61102;51.956;5.878;2023-04-04T12:22:49;17.24;25.55
72952;HTU21D;61102;51.956;5.878;2023-04-04T12:25:20;17.47;25.36
72952;HTU21D;61102;51.956;5.878;2023-04-04T12:27:47;17.83;25.11
72952;HTU21D;61102;51.956;5.878;2023-04-04T12:30:14;18.12;24.56
72952;HTU21D;61102;51.956;5.878;2023-04-04T12:32:47;18.37;23.76
72952;HTU21D;61102;51.956;5.878;2023-04-04T12:35:14;18.79;23.55
72952;HTU21D;61102;51.956;5.878;2023-04-04T12:38:00;19.33;23.14
72952;HTU21D;61102;51.956;5.878;2023-04-04T12:40:36;19.76;22.52
72952;HTU21D;61102;51.956;5.878;2023-04-04T12:43:06;20.11;22.39
72952;HTU21D;61102;51.956;5.878;2023-04-04T12:45:36;20.41;21.60
72952;HTU21D;61102;51.956;5.878;2023-04-04T12:48:11;20.65;21.15
72952;HTU21D;61102;51.956;5.878;2023-04-04T12:50:49;20.91;21.02
72952;HTU21D;61102;51.956;5.878;2023-04-04T12:53:18;20.89;20.09
72952;HTU21D;61102;51.956;5.878;2023-04-04T12:55:45;20.96;20.22
72952;HTU21D;61102;51.956;5.878;2023-04-04T12:58:15;21.40;19.99
72952;HTU21D;61102;51.956;5.878;2023-04-04T13:00:42;21.83;19.97
72952;HTU21D;61102;51.956;5.878;2023-04-04T13:03:08;22.08;19.83
72952;HTU21D;61102;51.956;5.878;2023-04-04T13:05:35;22.02;19.75
72952;HTU21D;61102;51.956;5.878;2023-04-04T13:08:06;21.94;19.63
72952;HTU21D;61102;51.956;5.878;2023-04-04T13:10:55;22.39;19.41
72952;HTU21D;61102;51.956;5.878;2023-04-04T13:13:37;22.93;18.73
72952;HTU21D;61102;51.956;5.878;2023-04-04T13:16:11;23.32;18.33
72952;HTU21D;61102;51.956;5.878;2023-04-04T13:18:43;23.55;17.91
72952;HTU21D;61102;51.956;5.878;2023-04-04T13:21:10;23.87;17.67
72952;HTU21D;61102;51.956;5.878;2023-04-04T13:23:38;23.73;17.82
72952;HTU21D;61102;51.956;5.878;2023-04-04T13:26:06;23.54;17.95
72952;HTU21D;61102;51.956;5.878;2023-04-04T13:28:33;23.53;17.97
72952;HTU21D;61102;51.956;5.878;2023-04-04T13:31:04;23.61;17.64
72952;HTU21D;61102;51.956;5.878;2023-04-04T13:33:31;23.56;17.45
72952;HTU21D;61102;51.956;5.878;2023-04-04T13:35:57;23.43;17.62
72952;HTU21D;61102;51.956;5.878;2023-04-04T13:38:24;23.29;17.64
72952;HTU21D;61102;51.956;5.878;2023-04-04T13:40:50;23.13;17.74
72952;HTU21D;61102;51.956;5.878;2023-04-04T13:43:16;23.05;17.81
72952;HTU21D;61102;51.956;5.878;2023-04-04T13:45:45;22.75;17.69
72952;HTU21D;61102;51.956;5.878;2023-04-04T13:48:12;22.62;17.86
72952;HTU21D;61102;51.956;5.878;2023-04-04T13:50:39;22.48;17.69
72952;HTU21D;61102;51.956;5.878;2023-04-04T13:53:07;22.76;17.57
72952;HTU21D;61102;51.956;5.878;2023-04-04T13:55:33;23.21;17.28
72952;HTU21D;61102;51.956;5.878;2023-04-04T13:57:59;23.68;16.99
72952;HTU21D;61102;51.956;5.878;2023-04-04T14:00:25;23.95;16.84
72952;HTU21D;61102;51.956;5.878;2023-04-04T14:02:51;23.97;16.71
72952;HTU21D;61102;51.956;5.878;2023-04-04T14:05:17;23.97;17.04
72952;HTU21D;61102;51.956;5.878;2023-04-04T14:07:45;23.94;16.54
72952;HTU21D;61102;51.956;5.878;2023-04-04T14:10:11;23.64;16.18
72952;HTU21D;61102;51.956;5.878;2023-04-04T14:12:37;23.05;15.03
72952;HTU21D;61102;51.956;5.878;2023-04-04T14:15:04;21.88;16.38
72952;HTU21D;61102;51.956;5.878;2023-04-04T14:17:32;20.83;18.02
72952;HTU21D;61102;51.956;5.878;2023-04-04T14:19:59;19.88;19.28
72952;HTU21D;61102;51.956;5.878;2023-04-04T14:22:26;19.25;20.37
72952;HTU21D;61102;51.956;5.878;2023-04-04T14:24:52;18.79;21.15
72952;HTU21D;61102;51.956;5.878;2023-04-04T14:27:18;18.33;21.57
72952;HTU21D;61102;51.956;5.878;2023-04-04T14:29:44;17.87;22.21
72952;HTU21D;61102;51.956;5.878;2023-04-04T14:32:10;17.52;22.58
72952;HTU21D;61102;51.956;5.878;2023-04-04T14:34:36;17.17;22.88
72952;HTU21D;61102;51.956;5.878;2023-04-04T14:37:03;16.78;23.10
72952;HTU21D;61102;51.956;5.878;2023-04-04T14:39:29;16.49;23.72
72952;HTU21D;61102;51.956;5.878;2023-04-04T14:41:55;16.31;24.18
72952;HTU21D;61102;51.956;5.878;2023-04-04T14:44:21;16.16;24.46
72952;HTU21D;61102;51.956;5.878;2023-04-04T14:46:50;16.02;24.78
72952;HTU21D;61102;51.956;5.878;2023-04-04T14:49:17;15.92;24.88
72952;HTU21D;61102;51.956;5.878;2023-04-04T14:51:44;15.77;24.68
72952;HTU21D;61102;51.956;5.878;2023-04-04T14:54:10;15.60;24.94
72952;HTU21D;61102;51.956;5.878;2023-04-04T14:56:36;15.46;25.10
72952;HTU21D;61102;51.956;5.878;2023-04-04T14:59:02;15.40;25.42
72952;HTU21D;61102;51.956;5.878;2023-04-04T15:01:30;15.33;25.43
72952;HTU21D;61102;51.956;5.878;2023-04-04T15:03:56;15.31;25.59
72952;HTU21D;61102;51.956;5.878;2023-04-04T15:06:35;15.33;25.57
72952;HTU21D;61102;51.956;5.878;2023-04-04T15:09:03;15.29;25.43
72952;HTU21D;61102;51.956;5.878;2023-04-04T15:11:30;15.25;25.68
72952;HTU21D;61102;51.956;5.878;2023-04-04T15:13:56;15.24;25.76
72952;HTU21D;61102;51.956;5.878;2023-04-04T15:16:22;15.24;25.89
72952;HTU21D;61102;51.956;5.878;2023-04-04T15:18:49;15.23;26.07
72952;HTU21D;61102;51.956;5.878;2023-04-04T15:21:16;15.28;26.21
72952;HTU21D;61102;51.956;5.878;2023-04-04T15:23:42;15.31;26.35
72952;HTU21D;61102;51.956;5.878;2023-04-04T15:26:08;15.36;26.33
72952;HTU21D;61102;51.956;5.878;2023-04-04T15:28:34;15.40;26.30
72952;HTU21D;61102;51.956;5.878;2023-04-04T15:31:00;15.49;26.20
72952;HTU21D;61102;51.956;5.878;2023-04-04T15:33:27;15.54;26.12
72952;HTU21D;61102;51.956;5.878;2023-04-04T15:35:53;15.55;26.00
72952;HTU21D;61102;51.956;5.878;2023-04-04T15:38:19;15.59;26.10
72952;HTU21D;61102;51.956;5.878;2023-04-04T15:40:45;15.66;25.95
72952;HTU21D;61102;51.956;5.878;2023-04-04T15:43:11;15.67;26.02
72952;HTU21D;61102;51.956;5.878;2023-04-04T15:45:37;15.68;25.90
72952;HTU21D;61102;51.956;5.878;2023-04-04T15:48:04;15.62;26.19